createdAt,value
2017-07-31T00:02:10.719Z,18.30
2017-07-31T00:04:38.346Z,18.50
2017-07-31T00:07:05.965Z,18.60
2017-07-31T00:09:33.638Z,18.60
2017-07-31T00:12:01.285Z,18.70
2017-07-31T00:14:28.914Z,18.70
2017-07-31T00:16:56.581Z,18.70
2017-07-31T00:19:24.217Z,18.70
2017-07-31T00:21:51.862Z,18.80
2017-07-31T00:24:19.521Z,18.80
2017-07-31T00:26:47.151Z,18.90
2017-07-31T00:29:14.798Z,18.90
2017-07-31T00:31:42.475Z,18.80
2017-07-31T00:34:10.496Z,18.70
2017-07-31T00:36:38.116Z,18.70
2017-07-31T00:39:05.802Z,18.80
2017-07-31T00:41:33.435Z,18.90
2017-07-31T00:44:01.054Z,19.00
2017-07-31T00:46:28.721Z,19.00
2017-07-31T00:48:56.333Z,19.00
2017-07-31T00:51:23.958Z,19.00
2017-07-31T00:53:51.641Z,18.80
2017-07-31T00:56:19.258Z,18.70
2017-07-31T00:58:46.874Z,18.60
2017-07-31T01:01:14.938Z,18.60
2017-07-31T01:03:43.056Z,18.60
2017-07-31T01:06:10.675Z,18.60
2017-07-31T01:08:38.445Z,18.60
2017-07-31T01:11:06.069Z,18.50
2017-07-31T01:13:33.739Z,18.40
2017-07-31T01:16:01.411Z,18.50
2017-07-31T01:18:29.413Z,18.50
2017-07-31T01:20:57.287Z,18.50
2017-07-31T01:23:24.958Z,18.50
2017-07-31T01:25:52.986Z,18.50
2017-07-31T01:28:20.633Z,18.50
2017-07-31T01:30:48.382Z,18.60
2017-07-31T01:33:15.999Z,18.60
2017-07-31T01:35:43.619Z,18.50
2017-07-31T01:38:11.415Z,18.50
2017-07-31T01:40:39.059Z,18.40
2017-07-31T01:43:06.704Z,18.40
2017-07-31T01:45:34.459Z,18.30
2017-07-31T01:48:02.077Z,18.20
2017-07-31T01:50:29.743Z,18.10
2017-07-31T01:52:57.490Z,18.10
2017-07-31T01:55:25.109Z,18.00
2017-07-31T01:57:52.718Z,17.90
2017-07-31T02:00:20.798Z,17.90
2017-07-31T02:02:48.421Z,17.90
2017-07-31T02:05:16.124Z,17.80
2017-07-31T02:07:44.388Z,17.80
2017-07-31T02:10:12.004Z,17.80
2017-07-31T02:12:39.670Z,17.80
2017-07-31T02:15:07.418Z,17.80
2017-07-31T02:17:35.067Z,17.70
2017-07-31T02:20:02.688Z,17.70
2017-07-31T02:22:30.458Z,17.70
2017-07-31T02:24:58.077Z,17.70
2017-07-31T02:27:25.689Z,17.70
2017-07-31T02:29:53.397Z,17.70
2017-07-31T02:32:21.037Z,17.80
2017-07-31T02:34:48.649Z,17.70
2017-07-31T02:37:16.430Z,17.80
2017-07-31T02:39:44.046Z,17.80
2017-07-31T02:42:11.659Z,17.80
2017-07-31T02:44:39.326Z,17.80
2017-07-31T02:47:06.953Z,17.80
2017-07-31T02:49:34.569Z,17.80
2017-07-31T02:52:02.300Z,17.80
2017-07-31T02:54:29.916Z,17.80
2017-07-31T02:56:57.534Z,17.80
2017-07-31T02:59:25.235Z,17.70
2017-07-31T03:01:52.879Z,17.70
2017-07-31T03:04:20.524Z,17.70
2017-07-31T03:06:48.237Z,17.70
2017-07-31T03:09:15.862Z,17.70
2017-07-31T03:11:43.560Z,17.80
2017-07-31T03:14:11.308Z,17.80
2017-07-31T03:16:38.926Z,17.80
2017-07-31T03:19:06.549Z,17.80
2017-07-31T03:21:34.234Z,17.80
2017-07-31T03:24:01.888Z,17.80
2017-07-31T03:26:29.502Z,17.90
2017-07-31T03:28:57.281Z,17.90
2017-07-31T03:31:24.902Z,17.90
2017-07-31T03:33:52.517Z,17.90
2017-07-31T03:36:20.187Z,17.90
2017-07-31T03:38:47.804Z,17.90
2017-07-31T03:41:15.429Z,17.90
2017-07-31T03:43:43.596Z,17.80
2017-07-31T03:46:11.817Z,17.70
2017-07-31T03:48:39.438Z,17.70
2017-07-31T03:51:07.180Z,17.70
2017-07-31T03:53:34.899Z,17.70
2017-07-31T03:56:04.085Z,17.60
2017-07-31T03:58:31.761Z,17.60
2017-07-31T04:00:59.432Z,17.60
2017-07-31T04:03:27.073Z,17.60
2017-07-31T04:05:54.754Z,17.60
2017-07-31T04:08:22.508Z,17.60
2017-07-31T04:10:50.146Z,17.50
2017-07-31T04:13:18.218Z,17.50
2017-07-31T04:15:45.914Z,17.50
2017-07-31T04:18:13.534Z,17.50
2017-07-31T04:20:41.305Z,17.60
2017-07-31T04:23:08.927Z,17.60
2017-07-31T04:25:36.582Z,17.70
2017-07-31T04:28:04.343Z,17.70
2017-07-31T04:30:31.968Z,17.70
2017-07-31T04:32:59.594Z,17.80
2017-07-31T04:35:27.381Z,17.80
2017-07-31T04:37:55.002Z,17.80
2017-07-31T04:40:22.622Z,17.90
2017-07-31T04:42:50.319Z,17.90
2017-07-31T04:45:17.958Z,17.90
2017-07-31T04:47:45.575Z,17.90
2017-07-31T04:50:13.247Z,17.90
2017-07-31T04:52:40.870Z,17.90
2017-07-31T04:55:08.742Z,17.90
2017-07-31T04:57:36.710Z,18.00
2017-07-31T05:00:04.455Z,18.10
2017-07-31T05:02:32.096Z,18.20
2017-07-31T05:04:59.938Z,18.30
2017-07-31T05:07:27.583Z,18.30
2017-07-31T05:09:55.202Z,18.40
2017-07-31T05:12:22.992Z,18.50
2017-07-31T05:14:50.719Z,18.50
2017-07-31T05:17:18.471Z,18.60
2017-07-31T05:19:46.342Z,18.60
2017-07-31T05:22:14.485Z,18.60
2017-07-31T05:24:42.175Z,18.60
2017-07-31T05:27:09.839Z,18.70
2017-07-31T05:29:37.453Z,19.00
2017-07-31T05:32:05.565Z,19.50
2017-07-31T05:34:33.316Z,19.50
2017-07-31T05:37:00.930Z,19.70
2017-07-31T05:39:28.607Z,19.70
2017-07-31T05:41:56.558Z,19.90
2017-07-31T05:44:24.203Z,19.90
2017-07-31T05:46:51.817Z,19.90
2017-07-31T05:49:19.477Z,20.10
2017-07-31T05:51:47.136Z,20.20
2017-07-31T05:54:14.756Z,20.30
2017-07-31T05:56:42.528Z,20.50
2017-07-31T05:59:10.146Z,20.80
2017-07-31T06:01:38.390Z,21.10
2017-07-31T06:04:06.179Z,21.30
2017-07-31T06:06:33.822Z,21.40
2017-07-31T06:09:01.472Z,21.50
2017-07-31T06:11:29.150Z,21.50
2017-07-31T06:13:57.682Z,21.20
2017-07-31T06:16:25.299Z,21.20
2017-07-31T06:18:52.967Z,21.10
2017-07-31T06:21:20.594Z,20.90
2017-07-31T06:23:48.214Z,20.80
2017-07-31T06:26:16.010Z,20.70
2017-07-31T06:28:43.634Z,20.70
2017-07-31T06:31:11.255Z,20.90
2017-07-31T06:33:38.943Z,20.90
2017-07-31T06:36:06.562Z,21.00
2017-07-31T06:38:34.177Z,21.00
2017-07-31T06:41:01.850Z,20.90
2017-07-31T06:43:29.466Z,21.00
2017-07-31T06:45:57.082Z,21.10
2017-07-31T06:48:24.814Z,21.20
2017-07-31T06:50:52.561Z,21.30
2017-07-31T06:53:20.178Z,21.30
2017-07-31T06:55:47.857Z,21.40
2017-07-31T06:58:15.494Z,21.50
2017-07-31T07:00:43.113Z,21.80
2017-07-31T07:03:10.783Z,22.00
2017-07-31T07:05:38.398Z,22.10
2017-07-31T07:08:06.074Z,22.00
2017-07-31T07:10:33.824Z,22.10
2017-07-31T07:13:01.490Z,22.30
2017-07-31T07:15:29.523Z,22.60
2017-07-31T07:17:57.238Z,22.60
2017-07-31T07:20:24.915Z,22.40
2017-07-31T07:22:58.191Z,22.50
2017-07-31T07:25:25.805Z,22.50
2017-07-31T07:27:53.422Z,22.50
2017-07-31T07:30:21.101Z,22.50
2017-07-31T07:32:48.770Z,22.60
2017-07-31T07:35:16.387Z,22.80
2017-07-31T07:37:44.702Z,22.80
2017-07-31T07:40:12.708Z,23.60
2017-07-31T07:42:40.373Z,23.60
2017-07-31T07:45:08.041Z,23.90
2017-07-31T07:47:35.658Z,24.00
2017-07-31T07:50:03.278Z,24.10
2017-07-31T07:52:30.954Z,24.30
2017-07-31T07:54:58.599Z,24.60
2017-07-31T07:57:26.244Z,24.90
2017-07-31T07:59:53.905Z,25.00
2017-07-31T08:02:21.533Z,25.00
2017-07-31T08:04:49.157Z,24.70
2017-07-31T08:07:16.925Z,24.40
2017-07-31T08:09:44.672Z,24.10
2017-07-31T08:12:12.317Z,24.30
2017-07-31T08:14:39.990Z,24.40
2017-07-31T08:17:07.709Z,24.60
2017-07-31T08:19:35.326Z,24.80
2017-07-31T08:22:03.099Z,25.20
2017-07-31T08:24:30.718Z,25.30
2017-07-31T08:26:58.334Z,25.30
2017-07-31T08:29:26.142Z,25.30
2017-07-31T08:31:53.784Z,25.40
2017-07-31T08:34:21.402Z,25.30
2017-07-31T08:36:49.281Z,25.10
2017-07-31T08:39:16.899Z,24.90
2017-07-31T08:41:44.568Z,24.80
2017-07-31T08:44:12.263Z,25.20
2017-07-31T08:46:39.884Z,25.40
2017-07-31T08:49:07.897Z,26.00
2017-07-31T08:51:35.659Z,26.00
2017-07-31T08:54:03.307Z,26.30
2017-07-31T08:56:30.922Z,26.70
2017-07-31T08:58:58.699Z,27.00
2017-07-31T09:01:26.343Z,27.20
2017-07-31T09:03:53.957Z,27.20
2017-07-31T09:06:21.735Z,27.20
2017-07-31T09:08:49.380Z,27.20
2017-07-31T09:11:16.999Z,27.20
2017-07-31T09:13:44.775Z,27.20
2017-07-31T09:16:12.395Z,27.10
2017-07-31T09:18:40.011Z,26.70
2017-07-31T09:21:07.705Z,26.40
2017-07-31T09:23:35.322Z,26.30
2017-07-31T09:26:02.937Z,26.40
2017-07-31T09:28:31.005Z,27.00
2017-07-31T09:30:58.704Z,27.00
2017-07-31T09:33:26.318Z,27.50
2017-07-31T09:35:53.986Z,27.80
2017-07-31T09:38:21.631Z,28.00
2017-07-31T09:43:23.685Z,28.30
2017-07-31T09:45:51.323Z,28.30
2017-07-31T09:48:18.946Z,28.30
2017-07-31T09:50:47.051Z,28.30
2017-07-31T09:53:15.255Z,28.30
2017-07-31T09:55:43.028Z,28.30
2017-07-31T09:58:10.776Z,28.40
2017-07-31T10:00:38.420Z,28.60
2017-07-31T10:03:06.064Z,28.90
2017-07-31T10:05:33.815Z,29.10
2017-07-31T10:08:01.434Z,29.10
2017-07-31T10:10:29.210Z,29.20
2017-07-31T10:12:56.954Z,29.30
2017-07-31T10:15:24.570Z,29.30
2017-07-31T10:17:52.185Z,29.30
2017-07-31T10:20:19.888Z,29.50
2017-07-31T10:25:21.453Z,29.50
2017-07-31T10:27:50.093Z,29.60
2017-07-31T10:30:17.736Z,29.70
2017-07-31T10:32:45.410Z,29.70
2017-07-31T10:35:13.435Z,29.40
2017-07-31T10:37:41.061Z,29.40
2017-07-31T10:40:08.819Z,29.30
2017-07-31T10:42:36.473Z,29.30
2017-07-31T10:45:04.097Z,29.40
2017-07-31T10:47:31.867Z,29.60
2017-07-31T10:49:59.486Z,29.60
2017-07-31T10:52:27.101Z,29.70
2017-07-31T10:54:54.800Z,29.70
2017-07-31T10:57:22.418Z,29.60
2017-07-31T10:59:50.090Z,29.50
2017-07-31T11:02:17.766Z,29.70
2017-07-31T11:04:45.484Z,29.90
2017-07-31T11:07:13.102Z,29.90
2017-07-31T11:09:40.875Z,30.00
2017-07-31T11:12:08.519Z,30.00
2017-07-31T11:14:36.129Z,30.10
2017-07-31T11:17:03.794Z,30.20
2017-07-31T11:19:31.456Z,30.20
2017-07-31T11:21:59.074Z,30.10
2017-07-31T11:24:26.761Z,29.90
2017-07-31T11:26:54.492Z,29.80
2017-07-31T11:29:22.109Z,29.80
2017-07-31T11:31:49.884Z,29.90
2017-07-31T11:34:17.499Z,30.00
2017-07-31T11:36:45.118Z,30.00
2017-07-31T11:39:12.820Z,30.30
2017-07-31T11:41:40.440Z,30.50
2017-07-31T11:44:08.063Z,30.70
2017-07-31T11:46:35.831Z,30.70
2017-07-31T11:49:03.454Z,30.70
2017-07-31T11:51:31.073Z,30.60
2017-07-31T11:53:59.145Z,30.80
2017-07-31T11:56:26.846Z,30.80
2017-07-31T11:58:54.467Z,30.50
2017-07-31T12:01:22.229Z,30.10
2017-07-31T12:03:49.845Z,30.20
2017-07-31T12:06:17.528Z,30.10
2017-07-31T12:08:45.275Z,30.20
2017-07-31T12:11:12.919Z,30.30
2017-07-31T12:13:40.538Z,30.10
2017-07-31T12:16:08.310Z,29.90
2017-07-31T12:18:35.930Z,30.20
2017-07-31T12:21:03.550Z,30.60
2017-07-31T12:23:31.213Z,30.70
2017-07-31T12:25:58.893Z,30.90
2017-07-31T12:28:26.514Z,30.90
2017-07-31T12:30:54.285Z,30.90
2017-07-31T12:33:21.930Z,31.20
2017-07-31T12:35:49.546Z,31.50
2017-07-31T12:38:17.218Z,31.60
2017-07-31T12:40:44.834Z,31.70
2017-07-31T12:43:12.449Z,31.80
2017-07-31T12:45:40.130Z,31.40
2017-07-31T12:48:07.754Z,31.10
2017-07-31T12:50:35.444Z,31.10
2017-07-31T12:53:03.193Z,31.20
2017-07-31T12:55:30.809Z,31.40
2017-07-31T12:57:58.431Z,31.60
2017-07-31T13:00:26.229Z,31.60
2017-07-31T13:02:53.847Z,31.70
2017-07-31T13:05:21.481Z,31.90
2017-07-31T13:10:23.218Z,32.10
2017-07-31T13:12:50.899Z,32.00
2017-07-31T13:15:18.548Z,32.00
2017-07-31T13:17:46.173Z,31.70
2017-07-31T13:20:13.940Z,31.50
2017-07-31T13:22:41.586Z,31.50
2017-07-31T13:25:09.229Z,31.50
2017-07-31T13:27:37.489Z,31.10
2017-07-31T13:30:05.156Z,31.30
2017-07-31T13:32:32.790Z,31.60
2017-07-31T13:35:00.497Z,31.90
2017-07-31T13:37:28.172Z,31.90
2017-07-31T13:39:55.920Z,32.10
2017-07-31T13:42:23.616Z,32.20
2017-07-31T13:44:51.254Z,32.40
2017-07-31T13:47:18.889Z,32.40
2017-07-31T13:49:46.581Z,32.40
2017-07-31T13:52:14.350Z,32.60
2017-07-31T13:54:41.991Z,32.50
2017-07-31T13:57:09.701Z,32.30
2017-07-31T13:59:37.384Z,32.20
2017-07-31T14:02:05.022Z,32.10
2017-07-31T14:04:32.710Z,32.00
2017-07-31T14:07:00.423Z,32.00
2017-07-31T14:09:28.068Z,32.10
2017-07-31T14:11:55.771Z,32.10
2017-07-31T14:14:23.406Z,32.20
2017-07-31T14:16:51.041Z,32.40
2017-07-31T14:19:18.818Z,32.60
2017-07-31T14:21:46.470Z,32.80
2017-07-31T14:24:14.094Z,32.90
2017-07-31T14:26:41.785Z,32.70
2017-07-31T14:29:09.533Z,32.50
2017-07-31T14:31:37.490Z,32.60
2017-07-31T14:34:05.173Z,32.20
2017-07-31T14:36:33.082Z,31.90
2017-07-31T14:39:00.730Z,31.60
2017-07-31T14:41:28.476Z,31.20
2017-07-31T14:43:56.121Z,31.10
2017-07-31T14:46:23.765Z,31.10
2017-07-31T14:48:51.513Z,31.10
2017-07-31T14:51:19.155Z,30.90
2017-07-31T14:53:46.782Z,30.70
2017-07-31T14:56:14.474Z,30.80
2017-07-31T14:58:42.606Z,31.00
2017-07-31T15:01:10.233Z,31.00
2017-07-31T15:03:37.917Z,31.00
2017-07-31T15:06:05.550Z,31.10
2017-07-31T15:08:33.183Z,31.00
2017-07-31T15:11:00.866Z,30.90
2017-07-31T15:13:28.901Z,30.50
2017-07-31T15:15:56.529Z,30.50
2017-07-31T15:18:24.207Z,30.50
2017-07-31T15:20:52.330Z,30.60
2017-07-31T15:23:19.957Z,30.60
2017-07-31T15:25:47.654Z,30.50
2017-07-31T15:28:15.301Z,30.40
2017-07-31T15:30:43.421Z,30.70
2017-07-31T15:33:11.121Z,30.70
2017-07-31T15:35:38.812Z,31.00
2017-07-31T15:38:06.559Z,31.10
2017-07-31T15:40:34.310Z,30.90
2017-07-31T15:43:01.954Z,30.40
2017-07-31T15:45:29.599Z,30.20
2017-07-31T15:47:57.347Z,30.00
2017-07-31T15:50:25.094Z,29.90
2017-07-31T15:52:52.726Z,29.90
2017-07-31T15:55:20.882Z,29.90
2017-07-31T15:57:48.519Z,30.00
2017-07-31T16:00:16.184Z,29.80
2017-07-31T16:02:43.931Z,29.60
2017-07-31T16:05:11.576Z,29.70
2017-07-31T16:07:39.220Z,29.70
2017-07-31T16:10:06.902Z,29.70
2017-07-31T16:12:34.934Z,29.50
2017-07-31T16:15:02.669Z,29.50
2017-07-31T16:17:30.337Z,29.50
2017-07-31T16:19:58.358Z,29.60
2017-07-31T16:22:25.998Z,29.60
2017-07-31T16:24:53.674Z,29.70
2017-07-31T16:27:21.310Z,29.60
2017-07-31T16:29:48.948Z,29.60
2017-07-31T16:32:16.630Z,29.50
2017-07-31T16:34:44.748Z,29.00
2017-07-31T16:37:38.298Z,29.00
2017-07-31T16:40:32.668Z,28.90
2017-07-31T16:43:21.199Z,28.80
2017-07-31T16:45:48.843Z,28.70
2017-07-31T16:48:28.340Z,28.70
2017-07-31T16:50:56.018Z,28.70
2017-07-31T16:53:23.686Z,28.70
2017-07-31T16:55:51.837Z,28.70
2017-07-31T16:58:19.969Z,28.70
2017-07-31T17:03:22.169Z,28.70
2017-07-31T17:05:49.823Z,28.70
2017-07-31T17:08:17.464Z,28.60
2017-07-31T17:10:45.146Z,28.60
2017-07-31T17:13:12.774Z,28.60
2017-07-31T17:15:40.410Z,28.50
2017-07-31T17:18:08.094Z,28.40
2017-07-31T17:20:35.737Z,28.40
2017-07-31T17:23:03.383Z,28.50
2017-07-31T17:25:31.232Z,28.50
2017-07-31T17:27:58.880Z,28.30
2017-07-31T17:30:26.624Z,28.20
2017-07-31T17:32:54.306Z,28.10
2017-07-31T17:35:22.342Z,27.90
2017-07-31T17:37:50.071Z,27.90
2017-07-31T17:40:17.817Z,27.80
2017-07-31T17:42:45.462Z,27.80
2017-07-31T17:45:13.210Z,27.80
2017-07-31T17:47:41.060Z,27.80
2017-07-31T17:50:08.806Z,27.70
2017-07-31T17:52:36.443Z,27.70
2017-07-31T17:55:04.303Z,27.70
2017-07-31T17:57:31.958Z,27.70
2017-07-31T17:59:59.695Z,27.70
2017-07-31T18:02:27.544Z,27.70
2017-07-31T18:04:55.188Z,27.70
2017-07-31T18:07:22.831Z,27.70
2017-07-31T18:09:50.517Z,27.70
2017-07-31T18:12:18.579Z,27.40
2017-07-31T18:14:46.281Z,27.40
2017-07-31T18:17:14.028Z,27.30
2017-07-31T18:19:41.668Z,27.30
2017-07-31T18:22:09.316Z,27.20
2017-07-31T18:24:36.998Z,27.20
2017-07-31T18:27:04.712Z,27.20
2017-07-31T18:29:32.349Z,27.30
2017-07-31T18:32:00.086Z,27.20
2017-07-31T18:34:27.748Z,27.30
2017-07-31T18:36:55.377Z,27.20
2017-07-31T18:39:23.162Z,27.20
2017-07-31T18:41:51.197Z,27.00
2017-07-31T18:44:18.830Z,27.00
2017-07-31T18:46:46.587Z,26.90
2017-07-31T18:49:14.435Z,26.80
2017-07-31T18:51:42.182Z,26.70
2017-07-31T18:54:10.853Z,26.50
2017-07-31T18:56:39.191Z,26.30
2017-07-31T18:59:06.965Z,26.30
2017-07-31T19:01:34.662Z,26.20
2017-07-31T19:04:02.314Z,26.10
2017-07-31T19:06:29.961Z,26.10
2017-07-31T19:08:57.745Z,26.00
2017-07-31T19:11:25.494Z,26.00
2017-07-31T19:13:54.266Z,25.90
2017-07-31T19:16:22.114Z,25.80
2017-07-31T19:18:50.376Z,25.70
2017-07-31T19:21:18.122Z,25.60
2017-07-31T19:23:45.868Z,25.60
2017-07-31T19:26:13.614Z,25.60
2017-07-31T19:28:41.286Z,25.70
2017-07-31T19:31:09.087Z,25.70
2017-07-31T19:33:36.753Z,25.70
2017-07-31T19:36:04.389Z,25.60
2017-07-31T19:38:32.065Z,25.40
2017-07-31T19:41:00.111Z,25.10
2017-07-31T19:43:27.950Z,25.10
2017-07-31T19:45:55.798Z,25.00
2017-07-31T19:48:23.442Z,25.00
2017-07-31T19:50:51.190Z,24.90
2017-07-31T19:53:18.883Z,24.80
2017-07-31T19:55:46.584Z,24.80
2017-07-31T19:58:14.226Z,24.70
2017-07-31T20:00:42.042Z,24.70
2017-07-31T20:03:09.823Z,24.70
2017-07-31T20:05:37.463Z,24.60
2017-07-31T20:08:05.305Z,24.60
2017-07-31T20:10:32.938Z,24.50
2017-07-31T20:13:00.609Z,24.50
2017-07-31T20:15:28.357Z,24.50
2017-07-31T20:17:56.106Z,24.50
2017-07-31T20:20:23.851Z,24.50
2017-07-31T20:22:51.701Z,24.50
2017-07-31T20:25:19.390Z,24.50
2017-07-31T20:27:47.031Z,24.40
2017-07-31T20:30:14.839Z,24.40
2017-07-31T20:32:42.484Z,24.40
2017-07-31T20:35:10.127Z,24.30
2017-07-31T20:37:37.878Z,24.30
2017-07-31T20:40:05.522Z,24.20
2017-07-31T20:42:33.269Z,24.10
2017-07-31T20:45:00.964Z,24.10
2017-07-31T20:47:28.632Z,24.00
2017-07-31T20:49:56.278Z,24.00
2017-07-31T20:52:23.969Z,24.00
2017-07-31T20:54:51.601Z,24.00
2017-07-31T20:57:19.236Z,24.00
2017-07-31T20:59:46.988Z,24.00
2017-07-31T21:02:14.618Z,24.00
2017-07-31T21:04:42.277Z,24.00
2017-07-31T21:07:09.975Z,24.00
2017-07-31T21:09:37.614Z,24.00
2017-07-31T21:12:05.316Z,24.10
2017-07-31T21:14:32.994Z,24.10
2017-07-31T21:17:01.118Z,24.20
2017-07-31T21:19:28.794Z,24.20
2017-07-31T21:21:56.919Z,24.20
2017-07-31T21:24:24.554Z,24.30
2017-07-31T21:26:52.208Z,24.20
2017-07-31T21:29:19.902Z,24.20
2017-07-31T21:31:47.601Z,24.20
2017-07-31T21:34:15.347Z,24.20
2017-07-31T21:36:43.466Z,24.10
2017-07-31T21:39:11.148Z,24.10
2017-07-31T21:41:38.774Z,24.00
2017-07-31T21:44:06.470Z,24.00
2017-07-31T21:46:34.506Z,23.90
2017-07-31T21:49:02.146Z,23.90
2017-07-31T21:51:29.834Z,23.90
2017-07-31T21:53:57.470Z,23.90
2017-07-31T21:56:25.586Z,23.80
2017-07-31T21:58:53.266Z,23.80
2017-07-31T22:01:21.387Z,23.50
2017-07-31T22:03:49.029Z,23.50
2017-07-31T22:06:16.739Z,23.40
2017-07-31T22:08:44.398Z,23.30
2017-07-31T22:11:12.030Z,23.10
2017-07-31T22:13:39.755Z,23.10
2017-07-31T22:16:07.458Z,23.10
2017-07-31T22:18:35.093Z,23.00
2017-07-31T22:21:08.382Z,23.00
2017-07-31T22:23:36.129Z,23.00
2017-07-31T22:26:03.758Z,23.00
2017-07-31T22:28:31.438Z,22.90
2017-07-31T22:30:59.211Z,22.90
2017-07-31T22:33:26.850Z,22.80
2017-07-31T22:35:55.149Z,22.60
2017-07-31T22:38:22.786Z,22.60
2017-07-31T22:40:50.433Z,22.70
2017-07-31T22:43:18.210Z,22.60
2017-07-31T22:45:45.958Z,22.50
2017-07-31T22:48:13.706Z,22.40
2017-07-31T22:50:41.408Z,22.30
2017-07-31T22:53:09.096Z,22.30
2017-07-31T22:55:36.740Z,22.30
2017-07-31T22:58:04.492Z,22.20
2017-07-31T23:00:32.123Z,22.10
2017-07-31T23:02:59.761Z,22.10
2017-07-31T23:05:27.528Z,22.10
2017-07-31T23:07:55.165Z,22.10
2017-07-31T23:10:22.798Z,22.00
2017-07-31T23:12:50.564Z,22.00
2017-07-31T23:15:18.198Z,22.00
2017-07-31T23:17:45.835Z,21.90
2017-07-31T23:20:13.601Z,21.80
2017-07-31T23:22:41.233Z,21.80
2017-07-31T23:25:08.892Z,21.90
2017-07-31T23:27:36.670Z,21.90
2017-07-31T23:30:04.703Z,21.90
2017-07-31T23:32:32.443Z,21.90
2017-07-31T23:35:00.130Z,22.00
2017-07-31T23:37:27.836Z,22.00
2017-07-31T23:39:55.470Z,22.00
2017-07-31T23:42:23.169Z,21.90
2017-07-31T23:44:50.810Z,21.70
2017-07-31T23:47:18.617Z,21.70
2017-07-31T23:49:46.364Z,21.60
2017-07-31T23:52:14.004Z,21.60
2017-07-31T23:54:41.634Z,21.50
2017-07-31T23:57:09.329Z,21.50
2017-07-31T23:59:37.350Z,21.50
